BAW206 EGKK-EDDF
Flight info
| Callsign | BAW206 |
|---|---|
| Flight time | 0h 57m |
| Altitude | 33000 |
| Route | MIMFO Y312 DVR UL9 KONAN UL607 SPI T180 NIVNU/N0403F230 T847 IMCOM IMCOM2C |
| Aircraft | A20N/M-SDE2E3FGHIRWXY/LB1 |
Departure
| Time | 2026-04-14 15:57 |
|---|---|
| Airport | London Gatwick Airport (EGKK) |
Arrival
| Time | 2026-04-14 16:54 |
|---|---|
| Airport | Frankfurt Main Airport (EDDF) |
| Time | Latitude | Longitude | Altitude | Speed | Heading |
|---|---|---|---|---|---|
| 2026-04-14 15:30 | 51.15836 | -0.17635 | 204 ft | 0 kts | 347° |
| 2026-04-14 15:42 | 51.15833 | -0.17634 | 213 ft | 2 kts | 347° |
| 2026-04-14 15:42 | 51.15817 | -0.17629 | 215 ft | 2 kts | 353° |
| 2026-04-14 15:42 | 51.15800 | -0.17627 | 204 ft | 2 kts | 359° |
| 2026-04-14 15:43 | 51.15784 | -0.17628 | 212 ft | 2 kts | 8° |
| 2026-04-14 15:43 | 51.15768 | -0.17634 | 210 ft | 2 kts | 23° |
| 2026-04-14 15:43 | 51.15753 | -0.17647 | 209 ft | 2 kts | 44° |
| 2026-04-14 15:43 | 51.15743 | -0.17667 | 217 ft | 2 kts | 64° |
| 2026-04-14 15:44 | 51.15738 | -0.17688 | 212 ft | 1 kts | 75° |
| 2026-04-14 15:44 | 51.15737 | -0.17693 | 212 ft | 0 kts | 76° |
| 2026-04-14 15:46 | 51.15745 | -0.17620 | 210 ft | 17 kts | 81° |
| 2026-04-14 15:46 | 51.15739 | -0.17511 | 214 ft | 6 kts | 156° |
| 2026-04-14 15:46 | 51.15682 | -0.17490 | 214 ft | 13 kts | 167° |
| 2026-04-14 15:47 | 51.15571 | -0.17451 | 213 ft | 16 kts | 166° |
| 2026-04-14 15:47 | 51.15485 | -0.17421 | 212 ft | 13 kts | 167° |
| 2026-04-14 15:47 | 51.15431 | -0.17402 | 213 ft | 0 kts | 168° |
| 2026-04-14 15:48 | 51.15425 | -0.17400 | 211 ft | 4 kts | 168° |
| 2026-04-14 15:48 | 51.15356 | -0.17376 | 212 ft | 14 kts | 167° |
| 2026-04-14 15:48 | 51.15294 | -0.17320 | 208 ft | 5 kts | 150° |
| 2026-04-14 15:49 | 51.15252 | -0.17276 | 211 ft | 10 kts | 114° |
| 2026-04-14 15:49 | 51.15261 | -0.17134 | 213 ft | 16 kts | 76° |
| 2026-04-14 15:49 | 51.15282 | -0.16971 | 205 ft | 14 kts | 77° |
| 2026-04-14 15:49 | 51.15293 | -0.16844 | 205 ft | 6 kts | 112° |
| 2026-04-14 15:50 | 51.15282 | -0.16829 | 210 ft | 0 kts | 165° |
| 2026-04-14 15:50 | 51.15281 | -0.16829 | 209 ft | 0 kts | 169° |
| 2026-04-14 15:50 | 51.15277 | -0.16828 | 208 ft | 0 kts | 171° |
| 2026-04-14 15:55 | 51.15273 | -0.16827 | 214 ft | 2 kts | 171° |
| 2026-04-14 15:55 | 51.15220 | -0.16808 | 211 ft | 16 kts | 167° |
| 2026-04-14 15:55 | 51.15129 | -0.16806 | 205 ft | 11 kts | 226° |
| 2026-04-14 15:56 | 51.15115 | -0.16860 | 216 ft | 0 kts | 258° |
| 2026-04-14 15:56 | 51.15114 | -0.16868 | 216 ft | 4 kts | 258° |
| 2026-04-14 15:56 | 51.15066 | -0.17212 | 210 ft | 65 kts | 256° |
| 2026-04-14 15:57 | 51.14927 | -0.18235 | 212 ft | 121 kts | 257° |
| 2026-04-14 15:57 | 51.14710 | -0.19783 | 223 ft | 163 kts | 258° |
| 2026-04-14 15:57 | 51.14506 | -0.21529 | 804 ft | 157 kts | 253° |
| 2026-04-14 15:57 | 51.14292 | -0.23278 | 1403 ft | 165 kts | 253° |
| 2026-04-14 15:58 | 51.14110 | -0.25121 | 1982 ft | 171 kts | 253° |
| 2026-04-14 15:58 | 51.13907 | -0.27026 | 2700 ft | 179 kts | 256° |
| 2026-04-14 15:58 | 51.14028 | -0.29089 | 3302 ft | 202 kts | 283° |
| 2026-04-14 15:58 | 51.14845 | -0.31004 | 3855 ft | 226 kts | 316° |
| 2026-04-14 15:59 | 51.16357 | -0.32038 | 4226 ft | 255 kts | 353° |
| 2026-04-14 15:59 | 51.18100 | -0.31328 | 4870 ft | 269 kts | 34° |
| 2026-04-14 15:59 | 51.19321 | -0.29074 | 5572 ft | 272 kts | 70° |
| 2026-04-14 15:59 | 51.19868 | -0.26328 | 6864 ft | 251 kts | 77° |
| 2026-04-14 16:00 | 51.20266 | -0.23642 | 7790 ft | 251 kts | 79° |
| 2026-04-14 16:00 | 51.20625 | -0.20851 | 8389 ft | 263 kts | 82° |
| 2026-04-14 16:00 | 51.20966 | -0.17889 | 8907 ft | 281 kts | 82° |
| 2026-04-14 16:00 | 51.21324 | -0.14725 | 9445 ft | 296 kts | 82° |
| 2026-04-14 16:01 | 51.21706 | -0.11480 | 10294 ft | 300 kts | 81° |
| 2026-04-14 16:01 | 51.22110 | -0.08113 | 10714 ft | 321 kts | 81° |
| 2026-04-14 16:01 | 51.22542 | -0.04545 | 10967 ft | 343 kts | 80° |
| 2026-04-14 16:01 | 51.23013 | -0.00711 | 11425 ft | 356 kts | 80° |
| 2026-04-14 16:02 | 51.23520 | 0.03407 | 12183 ft | 362 kts | 79° |
| 2026-04-14 16:02 | 51.24007 | 0.07374 | 12924 ft | 367 kts | 79° |
| 2026-04-14 16:02 | 51.24499 | 0.11393 | 13644 ft | 372 kts | 78° |
| 2026-04-14 16:03 | 51.24997 | 0.15463 | 14308 ft | 376 kts | 79° |
| 2026-04-14 16:03 | 51.25340 | 0.19619 | 14964 ft | 379 kts | 87° |
| 2026-04-14 16:03 | 51.25314 | 0.23830 | 15484 ft | 381 kts | 96° |
| 2026-04-14 16:03 | 51.25005 | 0.27996 | 16120 ft | 384 kts | 98° |
| 2026-04-14 16:04 | 51.24647 | 0.32239 | 16776 ft | 388 kts | 99° |
| 2026-04-14 16:04 | 51.24283 | 0.36528 | 17422 ft | 391 kts | 98° |
| 2026-04-14 16:04 | 51.23925 | 0.40846 | 18078 ft | 395 kts | 98° |
| 2026-04-14 16:04 | 51.23573 | 0.45211 | 18627 ft | 398 kts | 98° |
| 2026-04-14 16:05 | 51.23224 | 0.49623 | 19128 ft | 403 kts | 97° |
| 2026-04-14 16:05 | 51.22874 | 0.54072 | 19674 ft | 407 kts | 97° |
| 2026-04-14 16:05 | 51.22519 | 0.58570 | 20217 ft | 410 kts | 97° |
| 2026-04-14 16:05 | 51.22165 | 0.63046 | 20724 ft | 415 kts | 96° |
| 2026-04-14 16:06 | 51.21798 | 0.67675 | 20962 ft | 428 kts | 96° |
| 2026-04-14 16:06 | 51.21422 | 0.72421 | 21389 ft | 434 kts | 96° |
| 2026-04-14 16:06 | 51.21039 | 0.77212 | 21898 ft | 438 kts | 96° |
| 2026-04-14 16:06 | 51.20651 | 0.82052 | 22386 ft | 442 kts | 96° |
| 2026-04-14 16:07 | 51.20259 | 0.86937 | 22943 ft | 446 kts | 95° |
| 2026-04-14 16:07 | 51.19860 | 0.91873 | 23420 ft | 451 kts | 95° |
| 2026-04-14 16:07 | 51.19455 | 0.96853 | 23849 ft | 455 kts | 95° |
| 2026-04-14 16:07 | 51.19046 | 1.01867 | 24278 ft | 457 kts | 95° |
| 2026-04-14 16:08 | 51.18638 | 1.06846 | 24694 ft | 460 kts | 94° |
| 2026-04-14 16:08 | 51.18222 | 1.11910 | 25125 ft | 462 kts | 94° |
| 2026-04-14 16:08 | 51.17802 | 1.16996 | 25530 ft | 465 kts | 94° |
| 2026-04-14 16:08 | 51.17377 | 1.22116 | 25926 ft | 467 kts | 94° |
| 2026-04-14 16:09 | 51.16949 | 1.27261 | 26299 ft | 470 kts | 94° |
| 2026-04-14 16:09 | 51.16516 | 1.32435 | 26703 ft | 472 kts | 94° |
| 2026-04-14 16:09 | 51.16083 | 1.37621 | 27057 ft | 474 kts | 93° |
| 2026-04-14 16:09 | 51.15751 | 1.42857 | 27419 ft | 475 kts | 90° |
| 2026-04-14 16:10 | 51.15506 | 1.48117 | 27755 ft | 477 kts | 89° |
| 2026-04-14 16:10 | 51.15289 | 1.53326 | 28090 ft | 479 kts | 89° |
| 2026-04-14 16:10 | 51.15065 | 1.58640 | 28413 ft | 482 kts | 89° |
| 2026-04-14 16:10 | 51.14828 | 1.63974 | 28710 ft | 484 kts | 89° |
| 2026-04-14 16:11 | 51.14579 | 1.69326 | 29004 ft | 486 kts | 89° |
| 2026-04-14 16:11 | 51.14320 | 1.74699 | 29308 ft | 488 kts | 90° |
| 2026-04-14 16:11 | 51.14053 | 1.80098 | 29580 ft | 490 kts | 90° |
| 2026-04-14 16:11 | 51.13781 | 1.85525 | 29850 ft | 492 kts | 90° |
| 2026-04-14 16:12 | 51.13505 | 1.90962 | 30122 ft | 494 kts | 90° |
| 2026-04-14 16:12 | 51.13229 | 1.96350 | 30377 ft | 496 kts | 90° |
| 2026-04-14 16:12 | 51.12946 | 2.01830 | 30611 ft | 498 kts | 90° |
| 2026-04-14 16:12 | 51.12658 | 2.07330 | 30838 ft | 500 kts | 90° |
| 2026-04-14 16:13 | 51.12367 | 2.12850 | 31056 ft | 501 kts | 90° |
| 2026-04-14 16:13 | 51.12072 | 2.18386 | 31273 ft | 503 kts | 90° |
| 2026-04-14 16:13 | 51.11773 | 2.23938 | 31442 ft | 505 kts | 90° |
| 2026-04-14 16:13 | 51.11470 | 2.29510 | 31679 ft | 505 kts | 90° |
| 2026-04-14 16:14 | 51.11163 | 2.35075 | 31920 ft | 504 kts | 90° |
| 2026-04-14 16:14 | 51.10855 | 2.40614 | 32191 ft | 503 kts | 90° |
| 2026-04-14 16:14 | 51.10544 | 2.46161 | 32433 ft | 503 kts | 90° |
| 2026-04-14 16:14 | 51.10235 | 2.51617 | 32669 ft | 502 kts | 90° |
| 2026-04-14 16:15 | 51.09919 | 2.57151 | 32907 ft | 501 kts | 90° |
| 2026-04-14 16:15 | 51.09583 | 2.62666 | 33141 ft | 501 kts | 92° |
| 2026-04-14 16:15 | 51.08999 | 2.68148 | 33182 ft | 503 kts | 98° |
| 2026-04-14 16:16 | 51.07137 | 2.78880 | 33187 ft | 504 kts | 102° |
| 2026-04-14 16:16 | 51.05155 | 2.89550 | 33182 ft | 502 kts | 103° |
| 2026-04-14 16:17 | 51.03182 | 3.00185 | 33185 ft | 502 kts | 103° |
| 2026-04-14 16:17 | 51.01234 | 3.10725 | 33182 ft | 500 kts | 103° |
| 2026-04-14 16:18 | 50.99270 | 3.21314 | 33180 ft | 499 kts | 103° |
| 2026-04-14 16:18 | 50.97305 | 3.31861 | 33182 ft | 498 kts | 103° |
| 2026-04-14 16:19 | 50.95333 | 3.42384 | 33181 ft | 497 kts | 103° |
| 2026-04-14 16:19 | 50.93369 | 3.52808 | 33181 ft | 496 kts | 104° |
| 2026-04-14 16:20 | 50.91386 | 3.63267 | 33184 ft | 496 kts | 104° |
| 2026-04-14 16:20 | 50.89388 | 3.73712 | 33189 ft | 495 kts | 104° |
| 2026-04-14 16:21 | 50.87372 | 3.84122 | 33191 ft | 494 kts | 105° |
| 2026-04-14 16:21 | 50.85351 | 3.94506 | 33196 ft | 493 kts | 105° |
| 2026-04-14 16:22 | 50.83338 | 4.04802 | 33201 ft | 493 kts | 105° |
| 2026-04-14 16:22 | 50.81311 | 4.15123 | 33203 ft | 492 kts | 106° |
| 2026-04-14 16:23 | 50.79601 | 4.23783 | 33210 ft | 492 kts | 106° |
| 2026-04-14 16:23 | 50.77573 | 4.34009 | 33210 ft | 490 kts | 106° |
| 2026-04-14 16:24 | 50.75525 | 4.44277 | 33210 ft | 490 kts | 107° |
| 2026-04-14 16:24 | 50.73471 | 4.54520 | 33211 ft | 489 kts | 107° |
| 2026-04-14 16:25 | 50.71096 | 4.66413 | 33210 ft | 489 kts | 107° |
| 2026-04-14 16:25 | 50.69119 | 4.76641 | 33208 ft | 487 kts | 107° |
| 2026-04-14 16:26 | 50.67477 | 4.85122 | 33205 ft | 487 kts | 107° |
| 2026-04-14 16:26 | 50.65480 | 4.95302 | 33211 ft | 485 kts | 108° |
| 2026-04-14 16:27 | 50.63066 | 5.07065 | 33210 ft | 485 kts | 108° |
| 2026-04-14 16:27 | 50.61313 | 5.15513 | 33202 ft | 484 kts | 109° |
| 2026-04-14 16:28 | 50.59234 | 5.25513 | 33199 ft | 484 kts | 109° |
| 2026-04-14 16:28 | 50.57140 | 5.35552 | 33216 ft | 482 kts | 109° |
| 2026-04-14 16:29 | 50.55039 | 5.45574 | 33217 ft | 482 kts | 109° |
| 2026-04-14 16:29 | 50.52948 | 5.55506 | 33215 ft | 474 kts | 109° |
| 2026-04-14 16:30 | 50.50879 | 5.65347 | 33214 ft | 475 kts | 108° |
| 2026-04-14 16:30 | 50.49013 | 5.75201 | 33197 ft | 473 kts | 107° |
| 2026-04-14 16:31 | 50.47187 | 5.85131 | 33194 ft | 473 kts | 107° |
| 2026-04-14 16:31 | 50.45343 | 5.95020 | 33189 ft | 470 kts | 107° |
| 2026-04-14 16:32 | 50.43502 | 6.04767 | 33186 ft | 465 kts | 107° |
| 2026-04-14 16:32 | 50.41655 | 6.14472 | 32961 ft | 461 kts | 107° |
| 2026-04-14 16:32 | 50.40749 | 6.19211 | 32346 ft | 461 kts | 107° |
| 2026-04-14 16:33 | 50.39825 | 6.24031 | 31545 ft | 463 kts | 107° |
| 2026-04-14 16:33 | 50.38894 | 6.28873 | 30742 ft | 464 kts | 107° |
| 2026-04-14 16:33 | 50.37968 | 6.33690 | 30161 ft | 460 kts | 107° |
| 2026-04-14 16:33 | 50.37051 | 6.38457 | 29525 ft | 454 kts | 107° |
| 2026-04-14 16:34 | 50.36309 | 6.43236 | 28896 ft | 450 kts | 101° |
| 2026-04-14 16:34 | 50.35889 | 6.48066 | 28283 ft | 445 kts | 96° |
| 2026-04-14 16:34 | 50.35600 | 6.52871 | 27679 ft | 441 kts | 96° |
| 2026-04-14 16:34 | 50.35328 | 6.57639 | 27079 ft | 438 kts | 96° |
| 2026-04-14 16:35 | 50.35055 | 6.62366 | 26476 ft | 434 kts | 96° |
| 2026-04-14 16:35 | 50.34780 | 6.66989 | 25918 ft | 430 kts | 96° |
| 2026-04-14 16:35 | 50.34497 | 6.71632 | 25346 ft | 427 kts | 96° |
| 2026-04-14 16:35 | 50.34209 | 6.76246 | 24783 ft | 424 kts | 97° |
| 2026-04-14 16:36 | 50.33925 | 6.80814 | 24241 ft | 421 kts | 98° |
| 2026-04-14 16:36 | 50.33455 | 6.85309 | 23702 ft | 416 kts | 105° |
| 2026-04-14 16:36 | 50.32640 | 6.89598 | 23279 ft | 407 kts | 113° |
| 2026-04-14 16:36 | 50.31509 | 6.93654 | 22988 ft | 408 kts | 118° |
| 2026-04-14 16:37 | 50.30270 | 6.97669 | 22482 ft | 410 kts | 118° |
| 2026-04-14 16:37 | 50.29031 | 7.01660 | 21954 ft | 406 kts | 118° |
| 2026-04-14 16:37 | 50.27817 | 7.05612 | 21429 ft | 401 kts | 118° |
| 2026-04-14 16:37 | 50.26642 | 7.09482 | 20912 ft | 397 kts | 117° |
| 2026-04-14 16:38 | 50.25475 | 7.13357 | 20398 ft | 392 kts | 117° |
| 2026-04-14 16:38 | 50.24324 | 7.17191 | 19893 ft | 388 kts | 117° |
| 2026-04-14 16:38 | 50.23194 | 7.20995 | 19385 ft | 384 kts | 116° |
| 2026-04-14 16:38 | 50.22073 | 7.24770 | 18881 ft | 381 kts | 117° |
| 2026-04-14 16:39 | 50.20957 | 7.28498 | 18371 ft | 378 kts | 117° |
| 2026-04-14 16:39 | 50.19849 | 7.32185 | 17855 ft | 373 kts | 116° |
| 2026-04-14 16:39 | 50.18869 | 7.35921 | 17371 ft | 372 kts | 112° |
| 2026-04-14 16:39 | 50.17954 | 7.39686 | 16888 ft | 370 kts | 112° |
| 2026-04-14 16:40 | 50.17001 | 7.43388 | 16392 ft | 364 kts | 119° |
| 2026-04-14 16:40 | 50.15575 | 7.46444 | 16126 ft | 343 kts | 137° |
| 2026-04-14 16:40 | 50.13880 | 7.48915 | 15946 ft | 324 kts | 139° |
| 2026-04-14 16:40 | 50.12254 | 7.51222 | 15672 ft | 310 kts | 139° |
| 2026-04-14 16:41 | 50.10674 | 7.53482 | 15116 ft | 307 kts | 138° |
| 2026-04-14 16:41 | 50.09114 | 7.55740 | 14540 ft | 306 kts | 137° |
| 2026-04-14 16:41 | 50.07571 | 7.57991 | 13979 ft | 303 kts | 137° |
| 2026-04-14 16:41 | 50.06042 | 7.60231 | 13381 ft | 300 kts | 137° |
| 2026-04-14 16:42 | 50.04530 | 7.62454 | 12814 ft | 297 kts | 137° |
| 2026-04-14 16:42 | 50.03059 | 7.64617 | 12287 ft | 293 kts | 137° |
| 2026-04-14 16:42 | 50.01566 | 7.66809 | 11745 ft | 289 kts | 137° |
| 2026-04-14 16:42 | 50.00131 | 7.68907 | 11233 ft | 286 kts | 137° |
| 2026-04-14 16:43 | 49.98687 | 7.71016 | 10689 ft | 283 kts | 137° |
| 2026-04-14 16:43 | 49.97259 | 7.73100 | 10176 ft | 280 kts | 137° |
| 2026-04-14 16:43 | 49.95857 | 7.75134 | 9842 ft | 269 kts | 138° |
| 2026-04-14 16:43 | 49.94530 | 7.77052 | 9666 ft | 252 kts | 138° |
| 2026-04-14 16:44 | 49.93275 | 7.78863 | 9291 ft | 243 kts | 137° |
| 2026-04-14 16:44 | 49.92038 | 7.80643 | 8737 ft | 242 kts | 137° |
| 2026-04-14 16:44 | 49.90806 | 7.82420 | 8196 ft | 242 kts | 137° |
| 2026-04-14 16:45 | 49.88848 | 7.86238 | 7650 ft | 221 kts | 102° |
| 2026-04-14 16:45 | 49.88869 | 7.88572 | 7178 ft | 223 kts | 72° |
| 2026-04-14 16:45 | 49.89479 | 7.90782 | 6744 ft | 222 kts | 64° |
| 2026-04-14 16:45 | 49.90112 | 7.92949 | 6348 ft | 219 kts | 68° |
| 2026-04-14 16:46 | 49.90662 | 7.95142 | 5917 ft | 217 kts | 70° |
| 2026-04-14 16:46 | 49.91182 | 7.97335 | 5493 ft | 216 kts | 70° |
| 2026-04-14 16:46 | 49.91699 | 7.99518 | 5140 ft | 213 kts | 69° |
| 2026-04-14 16:46 | 49.92202 | 8.01628 | 5053 ft | 204 kts | 69° |
| 2026-04-14 16:47 | 49.92695 | 8.03683 | 5005 ft | 204 kts | 69° |
| 2026-04-14 16:47 | 49.93189 | 8.05753 | 5007 ft | 205 kts | 70° |
| 2026-04-14 16:47 | 49.93613 | 8.07532 | 5005 ft | 205 kts | 70° |
| 2026-04-14 16:47 | 49.94104 | 8.09579 | 5004 ft | 205 kts | 70° |
| 2026-04-14 16:48 | 49.94598 | 8.11643 | 5003 ft | 200 kts | 70° |
| 2026-04-14 16:48 | 49.95072 | 8.13621 | 5007 ft | 194 kts | 70° |
| 2026-04-14 16:48 | 49.95544 | 8.15592 | 5002 ft | 195 kts | 70° |
| 2026-04-14 16:48 | 49.96016 | 8.17560 | 5007 ft | 194 kts | 70° |
| 2026-04-14 16:49 | 49.96487 | 8.19528 | 4919 ft | 195 kts | 70° |
| 2026-04-14 16:49 | 49.96959 | 8.21502 | 4650 ft | 193 kts | 70° |
| 2026-04-14 16:49 | 49.97424 | 8.23441 | 4367 ft | 190 kts | 70° |
| 2026-04-14 16:49 | 49.97883 | 8.25363 | 4089 ft | 189 kts | 70° |
| 2026-04-14 16:50 | 49.98339 | 8.27262 | 3820 ft | 185 kts | 69° |
| 2026-04-14 16:50 | 49.98781 | 8.29106 | 3564 ft | 177 kts | 69° |
| 2026-04-14 16:50 | 49.99189 | 8.30836 | 3317 ft | 164 kts | 70° |
| 2026-04-14 16:50 | 49.99547 | 8.32446 | 3064 ft | 155 kts | 70° |
| 2026-04-14 16:51 | 49.99902 | 8.33985 | 2811 ft | 148 kts | 68° |
| 2026-04-14 16:51 | 50.00262 | 8.35436 | 2632 ft | 140 kts | 67° |
| 2026-04-14 16:51 | 50.00607 | 8.36836 | 2397 ft | 138 kts | 69° |
| 2026-04-14 16:51 | 50.00947 | 8.38226 | 2189 ft | 137 kts | 68° |
| 2026-04-14 16:52 | 50.01292 | 8.39619 | 2043 ft | 138 kts | 68° |
| 2026-04-14 16:52 | 50.01629 | 8.41023 | 1832 ft | 138 kts | 69° |
| 2026-04-14 16:52 | 50.01958 | 8.42422 | 1580 ft | 139 kts | 69° |
| 2026-04-14 16:52 | 50.02289 | 8.43833 | 1280 ft | 137 kts | 69° |
| 2026-04-14 16:53 | 50.02628 | 8.45200 | 1062 ft | 136 kts | 69° |
| 2026-04-14 16:53 | 50.02958 | 8.46589 | 824 ft | 136 kts | 70° |
| 2026-04-14 16:53 | 50.03282 | 8.47944 | 591 ft | 134 kts | 69° |
| 2026-04-14 16:53 | 50.03605 | 8.49298 | 411 ft | 134 kts | 69° |
| 2026-04-14 16:54 | 50.03922 | 8.50621 | 326 ft | 118 kts | 70° |
| 2026-04-14 16:54 | 50.04139 | 8.51522 | 337 ft | 60 kts | 69° |
| 2026-04-14 16:54 | 50.04231 | 8.51967 | 340 ft | 39 kts | 89° |
| 2026-04-14 16:54 | 50.04212 | 8.52374 | 350 ft | 36 kts | 100° |
| 2026-04-14 16:55 | 50.04190 | 8.52612 | 348 ft | 15 kts | 89° |
| 2026-04-14 16:55 | 50.04225 | 8.52783 | 355 ft | 20 kts | 69° |
| 2026-04-14 16:55 | 50.04287 | 8.53034 | 359 ft | 29 kts | 69° |
| 2026-04-14 16:55 | 50.04359 | 8.53334 | 366 ft | 30 kts | 69° |
| 2026-04-14 16:56 | 50.04402 | 8.53593 | 364 ft | 22 kts | 84° |
| 2026-04-14 16:56 | 50.04416 | 8.53837 | 365 ft | 23 kts | 83° |
| 2026-04-14 16:56 | 50.04434 | 8.54091 | 364 ft | 24 kts | 84° |
| 2026-04-14 16:56 | 50.04450 | 8.54357 | 366 ft | 25 kts | 85° |
| 2026-04-14 16:57 | 50.04433 | 8.54572 | 366 ft | 21 kts | 113° |
| 2026-04-14 16:57 | 50.04343 | 8.54743 | 362 ft | 21 kts | 147° |
| 2026-04-14 16:57 | 50.04194 | 8.54837 | 362 ft | 25 kts | 161° |
| 2026-04-14 16:57 | 50.04062 | 8.54913 | 365 ft | 12 kts | 160° |
| 2026-04-14 16:58 | 50.04014 | 8.55007 | 362 ft | 12 kts | 81° |
| 2026-04-14 16:58 | 50.04048 | 8.55146 | 363 ft | 18 kts | 71° |
| 2026-04-14 16:58 | 50.04092 | 8.55330 | 363 ft | 11 kts | 72° |
| 2026-04-14 16:58 | 50.04135 | 8.55506 | 368 ft | 21 kts | 69° |
| 2026-04-14 16:59 | 50.04189 | 8.55729 | 370 ft | 23 kts | 69° |
| 2026-04-14 16:59 | 50.04246 | 8.55967 | 372 ft | 24 kts | 69° |
| 2026-04-14 16:59 | 50.04311 | 8.56213 | 370 ft | 25 kts | 66° |
| 2026-04-14 16:59 | 50.04366 | 8.56474 | 370 ft | 26 kts | 71° |
| 2026-04-14 17:00 | 50.04432 | 8.56738 | 373 ft | 27 kts | 70° |
| 2026-04-14 17:00 | 50.04496 | 8.57020 | 368 ft | 29 kts | 70° |
| 2026-04-14 17:00 | 50.04573 | 8.57339 | 374 ft | 33 kts | 70° |
| 2026-04-14 17:00 | 50.04643 | 8.57627 | 370 ft | 25 kts | 69° |
| 2026-04-14 17:01 | 50.04696 | 8.57853 | 370 ft | 20 kts | 70° |
| 2026-04-14 17:01 | 50.04757 | 8.57965 | 372 ft | 13 kts | 37° |
| 2026-04-14 17:01 | 50.04812 | 8.58086 | 368 ft | 15 kts | 68° |
| 2026-04-14 17:01 | 50.04851 | 8.58260 | 370 ft | 18 kts | 71° |
| 2026-04-14 17:02 | 50.04899 | 8.58456 | 371 ft | 20 kts | 69° |
| 2026-04-14 17:02 | 50.04951 | 8.58668 | 372 ft | 22 kts | 70° |
| 2026-04-14 17:02 | 50.04992 | 8.58851 | 370 ft | 13 kts | 71° |
| 2026-04-14 17:02 | 50.05030 | 8.58891 | 368 ft | 5 kts | 321° |
| 2026-04-14 17:03 | 50.05069 | 8.58864 | 368 ft | 7 kts | 338° |
| 2026-04-14 17:03 | 50.05091 | 8.58851 | 373 ft | 0 kts | 340° |